Time;durP1;ratioP1;P1;durP2;ratioP2;P2;SDS_P1;SDS_P2;PMS_P1;PMS_P2;Temp;Humidity;BMP_temperature;BMP_pressure;BME280_temperature;BME280_humidity;BME280_pressure;Samples;Min_cycle;Max_cycle;Signal;HPM_P1;HPM_P2
2023/04/16 00:00:55;;;;;;;;;;;15.10;78.50;;;;;;4019321;29;20071;-64
2023/04/16 00:03:35;;;;;;;;;;;15.10;77.60;;;;;;4018935;29;19931;-64
2023/04/16 00:06:16;;;;;;;;;;;15.00;77.40;;;;;;4018894;29;20375;-65
2023/04/16 00:08:58;;;;;;;;;;;15.00;77.70;;;;;;4019025;29;19931;-65
2023/04/16 00:11:39;;;;;;;;;;;15.10;77.80;;;;;;4018853;29;20030;-65
2023/04/16 00:14:20;;;;;;;;;;;15.20;77.60;;;;;;4018887;29;19931;-70
2023/04/16 00:17:01;;;;;;;;;;;15.20;77.10;;;;;;4003364;29;20486;-71
2023/04/16 00:19:42;;;;;;;;;;;15.30;76.80;;;;;;4003722;29;19931;-70
2023/04/16 00:22:23;;;;;;;;;;;15.40;76.50;;;;;;4003714;29;20269;-69
2023/04/16 00:25:06;;;;;;;;;;;15.40;76.20;;;;;;4018150;29;19994;-70
2023/04/16 00:27:47;;;;;;;;;;;15.40;76.20;;;;;;4028448;29;19950;-70
2023/04/16 00:30:28;;;;;;;;;;;15.40;76.10;;;;;;4018696;29;20008;-71
2023/04/16 00:33:09;;;;;;;;;;;15.50;76.00;;;;;;4018380;29;19983;-70
2023/04/16 00:35:49;;;;;;;;;;;15.50;76.60;;;;;;4013124;29;20292;-70
2023/04/16 00:38:31;;;;;;;;;;;15.50;75.60;;;;;;4023319;29;19935;-70
2023/04/16 00:41:13;;;;;;;;;;;15.60;75.50;;;;;;4018398;29;20296;-71
2023/04/16 00:43:54;;;;;;;;;;;15.60;75.60;;;;;;4018059;29;20019;-71
2023/04/16 00:46:35;;;;;;;;;;;15.60;75.30;;;;;;4018236;29;19935;-71
2023/04/16 00:49:16;;;;;;;;;;;15.60;75.10;;;;;;4017026;29;19931;-70
2023/04/16 00:51:57;;;;;;;;;;;15.60;75.30;;;;;;4017233;29;19930;-70
2023/04/16 00:54:38;;;;;;;;;;;15.60;75.40;;;;;;4017723;29;20382;-70
2023/04/16 00:57:22;;;;;;;;;;;15.60;75.60;;;;;;4012696;29;19952;-70
2023/04/16 01:00:03;;;;;;;;;;;15.60;75.60;;;;;;4016409;29;20304;-70
2023/04/16 01:02:44;;;;;;;;;;;15.60;75.50;;;;;;4018268;29;20096;-70
2023/04/16 01:05:25;;;;;;;;;;;15.70;75.00;;;;;;4027773;29;20296;-71
2023/04/16 01:08:06;;;;;;;;;;;15.70;75.00;;;;;;4016649;29;20311;-72
2023/04/16 01:10:47;;;;;;;;;;;15.70;74.90;;;;;;4017944;29;19931;-69
2023/04/16 01:13:29;;;;;;;;;;;15.70;74.80;;;;;;4017958;29;19934;-69
2023/04/16 01:16:10;;;;;;;;;;;15.70;74.30;;;;;;4017690;29;19967;-69
2023/04/16 01:18:51;;;;;;;;;;;15.70;74.40;;;;;;4016762;29;19934;-70
2023/04/16 01:21:33;;;;;;;;;;;15.70;74.40;;;;;;4017233;29;19947;-70
2023/04/16 01:24:14;;;;;;;;;;;15.70;74.60;;;;;;4017433;29;20393;-71
2023/04/16 01:26:54;;;;;;;;;;;15.70;74.60;;;;;;4016886;29;19950;-71
2023/04/16 01:29:35;;;;;;;;;;;15.70;74.80;;;;;;4027226;29;20485;-70
2023/04/16 01:32:16;;;;;;;;;;;15.70;74.70;;;;;;4025090;29;19931;-70
2023/04/16 01:34:57;;;;;;;;;;;15.80;74.60;;;;;;4016673;29;19950;-71
2023/04/16 01:37:39;;;;;;;;;;;15.80;74.10;;;;;;4011780;29;19931;-71
2023/04/16 01:40:20;;;;;;;;;;;15.80;73.80;;;;;;4015129;29;20355;-70
2023/04/16 01:43:01;;;;;;;;;;;15.80;74.80;;;;;;4017379;29;19935;-70
2023/04/16 01:45:41;;;;;;;;;;;15.80;74.30;;;;;;4011898;29;20080;-70
2023/04/16 01:48:24;;;;;;;;;;;15.80;74.80;;;;;;4001278;29;20384;-70
2023/04/16 01:51:05;;;;;;;;;;;15.80;75.70;;;;;;4025644;29;19931;-69
2023/04/16 01:53:47;;;;;;;;;;;15.70;74.70;;;;;;4017673;29;19947;-70
2023/04/16 01:56:28;;;;;;;;;;;15.70;75.80;;;;;;4027057;29;19943;-70
2023/04/16 01:59:08;;;;;;;;;;;15.70;74.90;;;;;;4015776;29;19944;-71
2023/04/16 02:01:52;;;;;;;;;;;15.80;74.90;;;;;;4027143;29;19932;-70
2023/04/16 02:04:33;;;;;;;;;;;15.80;74.80;;;;;;4017504;29;20307;-70
2023/04/16 02:07:14;;;;;;;;;;;15.80;75.00;;;;;;4017051;29;19931;-70
2023/04/16 02:09:56;;;;;;;;;;;15.80;74.20;;;;;;4016304;29;20304;-71
2023/04/16 02:12:37;;;;;;;;;;;15.90;74.30;;;;;;4016689;29;19941;-70
2023/04/16 02:15:18;;;;;;;;;;;15.80;74.20;;;;;;4006720;29;19935;-70
2023/04/16 02:17:59;;;;;;;;;;;15.80;74.20;;;;;;4018747;29;19979;-71
2023/04/16 02:20:40;;;;;;;;;;;15.90;74.40;;;;;;4031643;29;20069;-70
2023/04/16 02:23:20;;;;;;;;;;;15.90;74.30;;;;;;4022270;29;20400;-70
2023/04/16 02:26:03;;;;;;;;;;;15.90;74.30;;;;;;4032175;29;19931;-70
2023/04/16 02:28:43;;;;;;;;;;;15.90;74.60;;;;;;4021073;29;19931;-70
2023/04/16 02:31:27;;;;;;;;;;;15.90;74.50;;;;;;4031887;29;20064;-71
2023/04/16 02:34:08;;;;;;;;;;;15.90;74.40;;;;;;4021367;29;19931;-71
2023/04/16 02:36:49;;;;;;;;;;;15.90;74.50;;;;;;4031664;29;20303;-70
2023/04/16 02:39:29;;;;;;;;;;;15.90;74.60;;;;;;4021196;29;19930;-70
2023/04/16 02:42:12;;;;;;;;;;;15.90;74.60;;;;;;4031569;29;20441;-71
2023/04/16 02:44:52;;;;;;;;;;;15.90;74.50;;;;;;4020937;29;19950;-70
2023/04/16 02:47:33;;;;;;;;;;;16.00;74.40;;;;;;4021513;29;19987;-70
2023/04/16 02:50:14;;;;;;;;;;;16.00;74.60;;;;;;4031618;29;19934;-70
2023/04/16 02:52:55;;;;;;;;;;;16.00;74.40;;;;;;4031842;29;19935;-70
2023/04/16 02:55:35;;;;;;;;;;;16.00;74.40;;;;;;4031214;29;19930;-71
2023/04/16 02:58:17;;;;;;;;;;;16.00;74.30;;;;;;4021882;29;19931;-71
2023/04/16 03:00:58;;;;;;;;;;;16.00;74.30;;;;;;4021253;29;19935;-71
2023/04/16 03:03:39;;;;;;;;;;;15.90;74.20;;;;;;4020563;29;19935;-71
2023/04/16 03:06:20;;;;;;;;;;;15.90;75.10;;;;;;4019159;29;19931;-71
2023/04/16 03:09:01;;;;;;;;;;;15.90;74.20;;;;;;4020831;29;19935;-70
2023/04/16 03:11:41;;;;;;;;;;;15.90;74.20;;;;;;4021095;29;19932;-70
2023/04/16 03:14:24;;;;;;;;;;;15.80;74.00;;;;;;4021932;29;20291;-70
2023/04/16 03:17:05;;;;;;;;;;;15.80;74.10;;;;;;4021406;29;19931;-69
2023/04/16 03:19:46;;;;;;;;;;;15.90;74.10;;;;;;4021644;29;20022;-69
2023/04/16 03:22:27;;;;;;;;;;;15.90;74.10;;;;;;4004309;29;20744;-69
2023/04/16 03:25:08;;;;;;;;;;;16.00;74.20;;;;;;4003313;29;20037;-70
2023/04/16 03:27:49;;;;;;;;;;;16.00;74.10;;;;;;4012617;29;19935;-69
2023/04/16 03:30:31;;;;;;;;;;;16.00;74.00;;;;;;4019315;29;20688;-69
2023/04/16 03:33:12;;;;;;;;;;;16.00;74.90;;;;;;4019359;29;20034;-65
2023/04/16 03:35:56;;;;;;;;;;;16.10;73.90;;;;;;4028664;29;19931;-71
2023/04/16 03:38:39;;;;;;;;;;;16.10;73.70;;;;;;4013394;29;19935;-70
2023/04/16 03:41:20;;;;;;;;;;;16.10;73.70;;;;;;4002780;29;19931;-70
2023/04/16 03:44:00;;;;;;;;;;;16.00;73.60;;;;;;4002918;29;20065;-70
2023/04/16 03:46:42;;;;;;;;;;;16.00;74.60;;;;;;4006062;29;20409;-69
2023/04/16 03:49:23;;;;;;;;;;;16.00;73.70;;;;;;4017890;29;19940;-69
2023/04/16 03:52:04;;;;;;;;;;;16.00;73.70;;;;;;4028669;29;19931;-69
2023/04/16 03:54:46;;;;;;;;;;;16.00;73.80;;;;;;4017685;29;19935;-69
2023/04/16 03:57:38;;;;;;;;;;;15.90;73.90;;;;;;4028361;29;19939;-70
2023/04/16 04:00:23;;;;;;;;;;;15.90;74.20;;;;;;4028645;29;20062;-71
2023/04/16 04:03:15;;;;;;;;;;;15.90;74.10;;;;;;4028325;29;20291;-71
2023/04/16 04:05:58;;;;;;;;;;;15.90;74.10;;;;;;4017748;29;20046;-70
2023/04/16 04:08:42;;;;;;;;;;;15.90;73.90;;;;;;4017899;29;19944;-70
2023/04/16 04:11:23;;;;;;;;;;;15.90;73.90;;;;;;4003740;29;19931;-70
2023/04/16 04:14:05;;;;;;;;;;;15.90;73.90;;;;;;4025653;29;19983;-71
2023/04/16 04:16:46;;;;;;;;;;;15.90;73.90;;;;;;4017759;29;20391;-70
2023/04/16 04:19:29;;;;;;;;;;;16.00;73.90;;;;;;4017674;29;19930;-70
2023/04/16 04:22:10;;;;;;;;;;;16.00;74.70;;;;;;4017391;29;19950;-71
2023/04/16 04:24:51;;;;;;;;;;;16.00;73.80;;;;;;4003266;29;20076;-71
2023/04/16 04:27:31;;;;;;;;;;;16.00;73.80;;;;;;4027507;29;19935;-71
2023/04/16 04:30:12;;;;;;;;;;;16.00;74.70;;;;;;4017658;29;19979;-71
2023/04/16 04:32:54;;;;;;;;;;;16.00;73.60;;;;;;4027809;29;19931;-71
2023/04/16 04:35:36;;;;;;;;;;;16.00;73.40;;;;;;4028087;29;19980;-71
2023/04/16 04:38:18;;;;;;;;;;;16.10;74.20;;;;;;4017402;29;19931;-71
2023/04/16 04:40:59;;;;;;;;;;;16.00;73.20;;;;;;4028282;29;20514;-71
2023/04/16 04:43:44;;;;;;;;;;;16.00;73.40;;;;;;4018229;29;20075;-71
2023/04/16 04:46:25;;;;;;;;;;;16.00;73.40;;;;;;4028104;29;20399;-71
2023/04/16 04:49:06;;;;;;;;;;;16.00;73.50;;;;;;4018279;29;19978;-69
2023/04/16 04:51:48;;;;;;;;;;;16.00;73.60;;;;;;4018019;29;20006;-69
2023/04/16 04:54:30;;;;;;;;;;;16.00;73.60;;;;;;4016773;29;20073;-70
2023/04/16 04:57:11;;;;;;;;;;;16.10;73.40;;;;;;4018224;29;19934;-70
2023/04/16 04:59:52;;;;;;;;;;;16.10;73.20;;;;;;4012512;29;20458;-70
2023/04/16 05:02:33;;;;;;;;;;;16.10;73.00;;;;;;4012461;29;20395;-70
2023/04/16 05:05:14;;;;;;;;;;;16.10;73.00;;;;;;4002745;29;19930;-69
2023/04/16 05:07:56;;;;;;;;;;;16.20;72.90;;;;;;4002727;29;19984;-69
2023/04/16 05:10:37;;;;;;;;;;;16.20;72.60;;;;;;4004838;29;20380;-70
2023/04/16 05:13:17;;;;;;;;;;;16.30;72.60;;;;;;4016291;29;19931;-70
2023/04/16 05:15:58;;;;;;;;;;;16.20;72.30;;;;;;4017762;29;20020;-70
2023/04/16 05:18:39;;;;;;;;;;;16.20;72.30;;;;;;4016403;29;19931;-70
2023/04/16 05:21:19;;;;;;;;;;;16.30;72.30;;;;;;4017676;29;19951;-70
2023/04/16 05:24:01;;;;;;;;;;;16.20;73.10;;;;;;4017743;29;20383;-70
2023/04/16 05:26:42;;;;;;;;;;;16.20;73.50;;;;;;4017831;29;20283;-69
2023/04/16 05:29:23;;;;;;;;;;;16.30;73.30;;;;;;4007122;29;19935;-70
2023/04/16 05:32:04;;;;;;;;;;;16.30;73.90;;;;;;4016224;29;19931;-69
2023/04/16 05:34:44;;;;;;;;;;;16.30;72.90;;;;;;4018151;29;19931;-69
2023/04/16 05:37:25;;;;;;;;;;;16.30;72.80;;;;;;4017897;29;20004;-69
2023/04/16 05:40:08;;;;;;;;;;;16.20;72.70;;;;;;4017516;29;20072;-69
2023/04/16 05:42:48;;;;;;;;;;;16.20;72.80;;;;;;4017904;29;19931;-70
2023/04/16 05:45:30;;;;;;;;;;;16.20;73.70;;;;;;4018015;29;19979;-66
2023/04/16 05:48:11;;;;;;;;;;;16.10;72.80;;;;;;4026987;29;20068;-72
2023/04/16 05:50:52;;;;;;;;;;;16.10;73.00;;;;;;4026887;29;19972;-71
2023/04/16 05:53:33;;;;;;;;;;;16.00;73.00;;;;;;4017662;29;19931;-71
2023/04/16 05:56:15;;;;;;;;;;;16.00;73.10;;;;;;4016646;29;19935;-71
2023/04/16 05:58:55;;;;;;;;;;;16.00;73.30;;;;;;4016863;29;19935;-71
2023/04/16 06:01:35;;;;;;;;;;;16.00;73.50;;;;;;4026450;29;19931;-71
2023/04/16 06:04:16;;;;;;;;;;;15.90;73.50;;;;;;4016463;29;19935;-71
2023/04/16 06:06:57;;;;;;;;;;;15.90;73.60;;;;;;4017392;29;19930;-71
2023/04/16 06:09:37;;;;;;;;;;;15.90;73.70;;;;;;4017173;29;19935;-71
2023/04/16 06:12:19;;;;;;;;;;;15.80;74.60;;;;;;4017712;29;19980;-71
2023/04/16 06:15:00;;;;;;;;;;;15.80;73.90;;;;;;4017385;29;19931;-71
2023/04/16 06:17:42;;;;;;;;;;;15.70;74.00;;;;;;4016906;29;19947;-70
2023/04/16 06:20:23;;;;;;;;;;;15.70;74.10;;;;;;4017630;29;20019;-71
2023/04/16 06:23:03;;;;;;;;;;;15.70;74.20;;;;;;4017386;29;20390;-71
2023/04/16 06:25:44;;;;;;;;;;;15.60;74.30;;;;;;4014417;29;20011;-71
2023/04/16 06:28:26;;;;;;;;;;;15.60;74.40;;;;;;4001901;29;20399;-72
2023/04/16 06:31:07;;;;;;;;;;;15.60;74.50;;;;;;4000572;29;20041;-72
2023/04/16 06:33:47;;;;;;;;;;;15.60;74.60;;;;;;4005852;29;19931;-72
2023/04/16 06:36:28;;;;;;;;;;;15.50;74.60;;;;;;4005552;29;20075;-71
2023/04/16 06:39:09;;;;;;;;;;;15.50;74.70;;;;;;4016561;29;19998;-71
2023/04/16 06:41:50;;;;;;;;;;;15.40;74.90;;;;;;4017199;29;19935;-70
2023/04/16 06:44:32;;;;;;;;;;;15.40;75.00;;;;;;4016969;29;19956;-70
2023/04/16 06:47:13;;;;;;;;;;;15.40;75.20;;;;;;4016809;29;19936;-72
2023/04/16 06:49:54;;;;;;;;;;;15.30;75.30;;;;;;4026589;29;19984;-72
2023/04/16 06:52:35;;;;;;;;;;;15.30;75.50;;;;;;4006744;29;20069;-71
2023/04/16 06:55:16;;;;;;;;;;;15.20;76.50;;;;;;4016598;29;20605;-71
2023/04/16 06:57:57;;;;;;;;;;;15.20;75.90;;;;;;4007090;29;19946;-71
2023/04/16 07:00:38;;;;;;;;;;;15.10;76.10;;;;;;4029737;29;19934;-71
2023/04/16 07:03:19;;;;;;;;;;;15.10;77.10;;;;;;4020074;29;20057;-71
2023/04/16 07:06:00;;;;;;;;;;;15.10;76.50;;;;;;4019883;29;19943;-71
2023/04/16 07:08:41;;;;;;;;;;;15.10;76.60;;;;;;4019924;29;19935;-72
2023/04/16 07:11:22;;;;;;;;;;;15.10;76.70;;;;;;4020136;29;19931;-71
2023/04/16 07:14:03;;;;;;;;;;;15.00;76.70;;;;;;4022032;29;20321;-71
2023/04/16 07:16:45;;;;;;;;;;;15.00;76.90;;;;;;4012360;29;20295;-71
2023/04/16 07:19:29;;;;;;;;;;;15.00;77.00;;;;;;4019096;29;19961;-69
2023/04/16 07:22:10;;;;;;;;;;;15.00;77.10;;;;;;4029418;29;19947;-69
2023/04/16 07:24:50;;;;;;;;;;;15.00;77.20;;;;;;4019605;29;19962;-68
2023/04/16 07:27:31;;;;;;;;;;;14.90;78.10;;;;;;4006627;29;19935;-68
2023/04/16 07:30:11;;;;;;;;;;;14.90;77.00;;;;;;4019391;29;19935;-69
2023/04/16 07:32:54;;;;;;;;;;;14.90;77.50;;;;;;4021353;29;19935;-71
2023/04/16 07:35:35;;;;;;;;;;;14.90;78.10;;;;;;4017555;29;19931;-71
2023/04/16 07:38:16;;;;;;;;;;;14.90;78.40;;;;;;4034885;29;19940;-70
2023/04/16 07:40:56;;;;;;;;;;;15.00;78.70;;;;;;4025884;29;19931;-70
2023/04/16 07:43:37;;;;;;;;;;;14.90;78.90;;;;;;4019220;29;19931;-70
2023/04/16 07:46:18;;;;;;;;;;;14.90;79.20;;;;;;4018228;29;20071;-70
2023/04/16 07:49:00;;;;;;;;;;;14.90;79.60;;;;;;4034095;29;19935;-70
2023/04/16 07:51:41;;;;;;;;;;;14.90;79.70;;;;;;4034708;29;19930;-69
2023/04/16 07:54:22;;;;;;;;;;;14.90;79.80;;;;;;4034582;29;19934;-68
2023/04/16 07:57:02;;;;;;;;;;;14.90;80.00;;;;;;4016494;29;20299;-68
2023/04/16 07:59:43;;;;;;;;;;;14.90;80.20;;;;;;4016372;29;19996;-68
2023/04/16 08:02:23;;;;;;;;;;;14.90;80.50;;;;;;4013202;29;20084;-68
2023/04/16 08:05:07;;;;;;;;;;;14.90;80.70;;;;;;4018020;29;20395;-70
2023/04/16 08:07:47;;;;;;;;;;;14.90;81.00;;;;;;4014652;29;19932;-68
2023/04/16 08:10:28;;;;;;;;;;;14.90;81.20;;;;;;4018891;29;20053;-69
2023/04/16 08:13:08;;;;;;;;;;;14.90;81.20;;;;;;4018349;29;19966;-66
2023/04/16 08:15:49;;;;;;;;;;;14.90;81.30;;;;;;4018447;29;20735;-66
2023/04/16 08:18:30;;;;;;;;;;;14.90;81.40;;;;;;4028032;29;19996;-70
2023/04/16 08:21:12;;;;;;;;;;;14.90;81.70;;;;;;4013722;29;20008;-66
2023/04/16 08:23:53;;;;;;;;;;;14.90;82.00;;;;;;4018472;29;19939;-67
2023/04/16 08:26:33;;;;;;;;;;;14.90;82.30;;;;;;4018403;29;19931;-68
2023/04/16 08:29:14;;;;;;;;;;;14.90;82.50;;;;;;4018870;29;19931;-68
2023/04/16 08:31:54;;;;;;;;;;;14.90;82.30;;;;;;4015651;29;19947;-68
2023/04/16 08:34:36;;;;;;;;;;;14.90;82.50;;;;;;4001342;29;20011;-68
2023/04/16 08:37:18;;;;;;;;;;;14.90;82.40;;;;;;4002940;29;19980;-68
2023/04/16 08:39:59;;;;;;;;;;;15.00;82.80;;;;;;4018687;29;20063;-67
2023/04/16 08:42:42;;;;;;;;;;;15.00;82.60;;;;;;4029493;29;20031;-66
2023/04/16 08:45:23;;;;;;;;;;;15.00;83.10;;;;;;4018631;29;19931;-67
2023/04/16 08:48:04;;;;;;;;;;;15.00;83.20;;;;;;4017652;29;19935;-67
2023/04/16 08:50:46;;;;;;;;;;;15.10;83.00;;;;;;4018066;29;19935;-67
2023/04/16 08:53:32;;;;;;;;;;;15.10;83.10;;;;;;4027727;29;19935;-67
2023/04/16 08:56:13;;;;;;;;;;;15.10;82.90;;;;;;4017986;29;19934;-68
2023/04/16 08:58:54;;;;;;;;;;;15.20;82.90;;;;;;4003177;29;19992;-67
2023/04/16 09:01:37;;;;;;;;;;;15.20;82.80;;;;;;4002267;29;19931;-65
2023/04/16 09:04:19;;;;;;;;;;;15.20;82.70;;;;;;4003046;29;19935;-67
2023/04/16 09:07:00;;;;;;;;;;;15.30;82.60;;;;;;4016879;29;19976;-67
2023/04/16 09:09:43;;;;;;;;;;;15.30;82.50;;;;;;4018132;29;19931;-67
2023/04/16 09:12:24;;;;;;;;;;;15.40;82.70;;;;;;4017839;29;19940;-67
2023/04/16 09:15:05;;;;;;;;;;;15.40;82.40;;;;;;4002462;29;19951;-66
2023/04/16 09:17:46;;;;;;;;;;;15.40;82.40;;;;;;4002274;29;19950;-66
2023/04/16 09:20:26;;;;;;;;;;;15.40;82.20;;;;;;4012318;29;19934;-66
2023/04/16 09:23:09;;;;;;;;;;;15.50;82.10;;;;;;4010514;29;19935;-67
2023/04/16 09:25:51;;;;;;;;;;;15.50;82.10;;;;;;4008040;29;19935;-67
2023/04/16 09:28:38;;;;;;;;;;;15.50;82.50;;;;;;4017724;29;19992;-67
2023/04/16 09:31:22;;;;;;;;;;;15.50;82.80;;;;;;4017974;29;19931;-67
2023/04/16 09:34:03;;;;;;;;;;;15.60;82.20;;;;;;4017742;29;20399;-67
2023/04/16 09:36:43;;;;;;;;;;;15.60;82.70;;;;;;4017711;29;19970;-67
2023/04/16 09:39:24;;;;;;;;;;;15.60;81.50;;;;;;4027303;29;20384;-67
2023/04/16 09:42:06;;;;;;;;;;;15.60;81.50;;;;;;4004576;29;20430;-68
2023/04/16 09:44:49;;;;;;;;;;;15.60;82.00;;;;;;4017377;29;20011;-68
2023/04/16 09:47:39;;;;;;;;;;;15.70;80.60;;;;;;4017765;29;20061;-68
2023/04/16 09:50:20;;;;;;;;;;;15.70;80.70;;;;;;4017256;29;19931;-67
2023/04/16 09:53:02;;;;;;;;;;;15.70;80.70;;;;;;4017301;29;19935;-67
2023/04/16 09:55:43;;;;;;;;;;;15.70;80.80;;;;;;4017693;29;19930;-67
2023/04/16 09:58:27;;;;;;;;;;;15.80;80.90;;;;;;4002448;29;19935;-66
2023/04/16 10:01:09;;;;;;;;;;;15.80;80.90;;;;;;4002580;29;19951;-67
2023/04/16 10:03:50;;;;;;;;;;;15.80;80.70;;;;;;4016029;29;20295;-67
2023/04/16 10:06:31;;;;;;;;;;;15.80;80.40;;;;;;4026598;29;19946;-66
2023/04/16 10:09:12;;;;;;;;;;;15.80;80.30;;;;;;4017734;29;19935;-66
2023/04/16 10:11:52;;;;;;;;;;;15.80;80.20;;;;;;4009356;29;20032;-67
2023/04/16 10:14:34;;;;;;;;;;;15.90;80.20;;;;;;4011310;29;20448;-67
2023/04/16 10:17:15;;;;;;;;;;;15.90;80.30;;;;;;4016846;29;20056;-67
2023/04/16 10:19:57;;;;;;;;;;;16.00;80.50;;;;;;4017064;29;19946;-67
2023/04/16 10:22:38;;;;;;;;;;;16.00;80.30;;;;;;4016772;29;19931;-67
2023/04/16 10:25:19;;;;;;;;;;;16.00;80.20;;;;;;4015282;29;20395;-67
2023/04/16 10:28:00;;;;;;;;;;;16.00;81.40;;;;;;4015813;29;19934;-67
2023/04/16 10:30:51;;;;;;;;;;;16.10;80.70;;;;;;4017259;29;20455;-66
2023/04/16 10:33:33;;;;;;;;;;;16.10;80.90;;;;;;4029330;29;19935;-67
2023/04/16 10:36:14;;;;;;;;;;;16.20;80.70;;;;;;4020229;29;19934;-67
2023/04/16 10:38:57;;;;;;;;;;;16.20;80.30;;;;;;4018742;29;20693;-67
2023/04/16 10:41:38;;;;;;;;;;;16.20;80.10;;;;;;4019351;29;19931;-67
2023/04/16 10:44:19;;;;;;;;;;;16.20;80.20;;;;;;4009173;29;19931;-67
2023/04/16 10:47:01;;;;;;;;;;;16.30;79.30;;;;;;4020175;29;19935;-68
2023/04/16 10:49:42;;;;;;;;;;;16.30;79.70;;;;;;4020128;29;19935;-67
2023/04/16 10:52:24;;;;;;;;;;;16.40;79.30;;;;;;4019641;29;20031;-66
2023/04/16 10:55:05;;;;;;;;;;;16.30;79.40;;;;;;4018458;29;20065;-67
2023/04/16 10:57:49;;;;;;;;;;;16.40;79.20;;;;;;4020005;29;19931;-68
2023/04/16 11:00:29;;;;;;;;;;;16.40;79.60;;;;;;4019731;29;19930;-68
2023/04/16 11:03:12;;;;;;;;;;;16.40;79.60;;;;;;4016572;29;19934;-67
2023/04/16 11:05:54;;;;;;;;;;;16.40;78.70;;;;;;4019739;29;19931;-67
2023/04/16 11:08:34;;;;;;;;;;;16.40;78.70;;;;;;4018579;29;20296;-66
2023/04/16 11:11:24;;;;;;;;;;;16.50;78.90;;;;;;4006638;29;19935;-67
2023/04/16 11:14:05;;;;;;;;;;;16.50;78.90;;;;;;4018810;29;20383;-67
2023/04/16 11:16:46;;;;;;;;;;;16.50;78.90;;;;;;4013565;29;19935;-66
2023/04/16 11:19:28;;;;;;;;;;;16.50;78.70;;;;;;4019588;29;20489;-68
2023/04/16 11:22:08;;;;;;;;;;;16.50;78.60;;;;;;4015432;29;19934;-68
2023/04/16 11:24:53;;;;;;;;;;;16.50;78.50;;;;;;4019387;29;20391;-67
2023/04/16 11:27:34;;;;;;;;;;;16.50;78.50;;;;;;4019131;29;19948;-68
2023/04/16 11:30:14;;;;;;;;;;;16.50;78.60;;;;;;4007150;29;19931;-68
2023/04/16 11:32:55;;;;;;;;;;;16.60;78.60;;;;;;4003612;29;19931;-67
2023/04/16 11:35:38;;;;;;;;;;;16.60;78.50;;;;;;4004305;29;19980;-68
2023/04/16 11:38:19;;;;;;;;;;;16.60;78.30;;;;;;4013521;29;20395;-68
2023/04/16 11:40:59;;;;;;;;;;;16.60;78.40;;;;;;4017517;29;20400;-70
2023/04/16 11:43:40;;;;;;;;;;;16.60;78.30;;;;;;4018884;29;20019;-70
2023/04/16 11:46:21;;;;;;;;;;;16.60;78.00;;;;;;4019026;29;19947;-70
2023/04/16 11:49:07;;;;;;;;;;;16.60;78.00;;;;;;4019520;29;19946;-70
2023/04/16 11:51:52;;;;;;;;;;;16.70;78.10;;;;;;4019136;29;20019;-69
2023/04/16 11:54:35;;;;;;;;;;;16.70;78.00;;;;;;4018595;29;19935;-69
2023/04/16 11:57:23;;;;;;;;;;;16.70;78.00;;;;;;4018922;29;19934;-68
2023/04/16 12:00:04;;;;;;;;;;;16.70;78.10;;;;;;4018843;29;19940;-66
2023/04/16 12:02:56;;;;;;;;;;;16.70;78.40;;;;;;4018497;29;19985;-67
2023/04/16 12:05:38;;;;;;;;;;;16.70;78.60;;;;;;4011237;29;20383;-66
2023/04/16 12:08:30;;;;;;;;;;;16.80;78.30;;;;;;4017027;29;20065;-66
2023/04/16 12:11:11;;;;;;;;;;;16.80;78.20;;;;;;4003322;29;20054;-65
2023/04/16 12:14:08;;;;;;;;;;;16.80;78.10;;;;;;4017871;29;19935;-67
2023/04/16 12:16:48;;;;;;;;;;;16.80;78.10;;;;;;4018685;29;20019;-68
2023/04/16 12:19:29;;;;;;;;;;;16.90;78.20;;;;;;4018193;29;19935;-71
2023/04/16 12:22:10;;;;;;;;;;;16.90;78.10;;;;;;4018486;29;19931;-68
2023/04/16 12:24:56;;;;;;;;;;;16.90;77.80;;;;;;4028262;29;19931;-69
2023/04/16 12:27:45;;;;;;;;;;;16.90;77.60;;;;;;4018595;29;19931;-67
2023/04/16 12:30:26;;;;;;;;;;;16.90;77.70;;;;;;4018624;29;19935;-67
2023/04/16 12:33:13;;;;;;;;;;;16.90;77.80;;;;;;4018032;29;19932;-68
2023/04/16 12:35:54;;;;;;;;;;;16.90;77.50;;;;;;4018457;29;20399;-67
2023/04/16 12:38:35;;;;;;;;;;;16.90;77.70;;;;;;4018416;29;20415;-67
2023/04/16 12:41:17;;;;;;;;;;;16.80;77.80;;;;;;4018271;29;20003;-66
2023/04/16 12:44:05;;;;;;;;;;;16.80;78.60;;;;;;4018066;29;20061;-66
2023/04/16 12:46:46;;;;;;;;;;;16.80;77.80;;;;;;4018185;29;19935;-65
2023/04/16 12:49:26;;;;;;;;;;;16.80;77.80;;;;;;4018209;29;19935;-65
2023/04/16 12:52:07;;;;;;;;;;;16.80;77.90;;;;;;4018299;29;19935;-66
2023/04/16 12:54:48;;;;;;;;;;;16.80;77.90;;;;;;4017956;29;19987;-67
2023/04/16 12:57:30;;;;;;;;;;;16.80;78.00;;;;;;4018264;29;20111;-66
2023/04/16 13:00:11;;;;;;;;;;;16.80;78.10;;;;;;4017858;29;19935;-66
2023/04/16 13:02:51;;;;;;;;;;;16.70;78.10;;;;;;4016464;29;20579;-65
2023/04/16 13:05:33;;;;;;;;;;;16.70;78.40;;;;;;4002784;29;19932;-66
2023/04/16 13:08:13;;;;;;;;;;;16.70;78.20;;;;;;4002782;29;19936;-66
2023/04/16 13:10:54;;;;;;;;;;;16.70;78.20;;;;;;4012099;29;19947;-65
2023/04/16 13:13:36;;;;;;;;;;;16.70;78.40;;;;;;4013390;29;20295;-67
2023/04/16 13:16:16;;;;;;;;;;;16.60;79.10;;;;;;4017772;29;19935;-71
2023/04/16 13:18:57;;;;;;;;;;;16.60;78.20;;;;;;4017837;29;20011;-66
2023/04/16 13:21:37;;;;;;;;;;;16.60;78.40;;;;;;4017412;29;20006;-67
2023/04/16 13:24:18;;;;;;;;;;;16.60;78.50;;;;;;4017568;29;20064;-67
2023/04/16 13:26:58;;;;;;;;;;;16.60;78.50;;;;;;4017705;29;19935;-67
2023/04/16 13:29:40;;;;;;;;;;;16.60;78.60;;;;;;4017564;29;20060;-68
2023/04/16 13:32:21;;;;;;;;;;;16.60;78.90;;;;;;4017378;29;19935;-63
2023/04/16 13:35:02;;;;;;;;;;;16.60;79.00;;;;;;4017665;29;20296;-67
2023/04/16 13:37:42;;;;;;;;;;;16.50;79.10;;;;;;4017768;29;20008;-66
2023/04/16 13:40:23;;;;;;;;;;;16.50;79.10;;;;;;4017418;29;19963;-68
2023/04/16 13:43:04;;;;;;;;;;;16.50;80.10;;;;;;4017462;29;19935;-66
2023/04/16 13:45:48;;;;;;;;;;;16.60;79.30;;;;;;4002010;29;20412;-67
2023/04/16 13:48:29;;;;;;;;;;;16.60;79.30;;;;;;4011845;29;20001;-66
2023/04/16 13:51:10;;;;;;;;;;;16.50;79.20;;;;;;4016919;29;20063;-67
2023/04/16 13:53:51;;;;;;;;;;;16.50;79.00;;;;;;4016824;29;19950;-65
2023/04/16 13:56:31;;;;;;;;;;;16.50;79.30;;;;;;4008251;29;19931;-65
2023/04/16 13:59:14;;;;;;;;;;;16.50;79.30;;;;;;4017481;29;19975;-66
2023/04/16 14:01:56;;;;;;;;;;;16.60;79.20;;;;;;4008389;29;20444;-66
2023/04/16 14:04:37;;;;;;;;;;;16.60;79.10;;;;;;4015527;29;19934;-66
2023/04/16 14:07:20;;;;;;;;;;;16.60;79.10;;;;;;4016582;29;19991;-66
2023/04/16 14:10:00;;;;;;;;;;;16.60;79.00;;;;;;4001857;29;20053;-66
2023/04/16 14:12:41;;;;;;;;;;;16.60;79.10;;;;;;4016800;29;20008;-66
2023/04/16 14:15:25;;;;;;;;;;;16.60;79.30;;;;;;4017262;29;19931;-66
2023/04/16 14:18:07;;;;;;;;;;;16.60;79.20;;;;;;4016886;29;19935;-66
2023/04/16 14:20:47;;;;;;;;;;;16.60;79.20;;;;;;4016890;29;19988;-65
2023/04/16 14:23:28;;;;;;;;;;;16.60;79.40;;;;;;4017220;29;19935;-66
2023/04/16 14:26:08;;;;;;;;;;;16.60;79.50;;;;;;4017004;29;19943;-66
2023/04/16 14:28:50;;;;;;;;;;;16.60;79.30;;;;;;4016930;29;20007;-66
2023/04/16 14:31:32;;;;;;;;;;;16.60;79.30;;;;;;4007661;29;19931;-66
2023/04/16 14:34:14;;;;;;;;;;;16.60;79.40;;;;;;4017106;29;19931;-66
2023/04/16 14:36:55;;;;;;;;;;;16.60;79.40;;;;;;4017022;29;19935;-66
2023/04/16 14:39:37;;;;;;;;;;;16.60;79.50;;;;;;4016711;29;19931;-66
2023/04/16 14:42:18;;;;;;;;;;;16.60;79.40;;;;;;4016700;29;19935;-66
2023/04/16 14:44:58;;;;;;;;;;;16.60;79.40;;;;;;4016881;29;20402;-66
2023/04/16 14:47:44;;;;;;;;;;;16.60;79.40;;;;;;4015818;29;19939;-66
2023/04/16 14:50:26;;;;;;;;;;;16.60;79.30;;;;;;4015080;29;19931;-66
2023/04/16 14:53:07;;;;;;;;;;;16.60;79.30;;;;;;4016586;29;19935;-65
2023/04/16 14:55:47;;;;;;;;;;;16.60;79.30;;;;;;4016118;29;20397;-64
2023/04/16 14:58:28;;;;;;;;;;;16.60;79.40;;;;;;4000527;29;20068;-65
2023/04/16 15:01:08;;;;;;;;;;;16.60;79.30;;;;;;4001984;29;19934;-65
2023/04/16 15:03:49;;;;;;;;;;;16.60;79.50;;;;;;4002027;29;19931;-65
2023/04/16 15:06:32;;;;;;;;;;;16.60;79.60;;;;;;4009114;29;20362;-65
2023/04/16 15:09:12;;;;;;;;;;;16.60;79.70;;;;;;4017202;29;19931;-66
2023/04/16 15:11:53;;;;;;;;;;;16.60;79.50;;;;;;4016992;29;20501;-66
2023/04/16 15:14:33;;;;;;;;;;;16.60;79.40;;;;;;4017047;29;20272;-66
2023/04/16 15:17:14;;;;;;;;;;;16.70;79.70;;;;;;4018117;29;20291;-67
2023/04/16 15:19:55;;;;;;;;;;;16.70;80.30;;;;;;4019338;29;19931;-66
2023/04/16 15:22:37;;;;;;;;;;;16.70;79.40;;;;;;4016301;29;20315;-67
2023/04/16 15:25:17;;;;;;;;;;;16.70;79.40;;;;;;4018357;29;19935;-66
2023/04/16 15:27:58;;;;;;;;;;;16.70;80.30;;;;;;4018240;29;20096;-66
2023/04/16 15:30:39;;;;;;;;;;;16.70;79.20;;;;;;4019276;29;20465;-65
2023/04/16 15:33:20;;;;;;;;;;;16.70;79.20;;;;;;4019313;29;20030;-66
2023/04/16 15:36:01;;;;;;;;;;;16.70;79.20;;;;;;4019173;29;19981;-66
2023/04/16 15:38:43;;;;;;;;;;;16.70;79.00;;;;;;4019461;29;19976;-66